KCNK

Details ICAO KCNK
Name BLOSSER MUNI
Region United States
Timezone America/Chicago (UTC-6.0)
Plans Departing 0
Arriving 0
Stats Elevation 1,486 ft / 453 m (AMSL)
Location 39.549189° -97.651956°
Runways 3
Magnetic Variation 3.796° E
Sunrise 2017-12-16 13:46:12 UTC / 2017-12-16 07:46:12 Local
Sunset 2017-12-16 23:09:18 UTC / 2017-12-16 17:09:18 Local
Advertisement - Login to hide

Runways

ID Width Length Bearing (true) Bearing (mag) Surface Threshold Offset Overrun Length
03 260 ft / 79 m 1,628 ft / 496 m 37.76° 33.96° Grass 0 ft / 0 m 0 ft / 0 m
12 300 ft / 91 m 2,262 ft / 690 m 132.47° 128.67° Grass 0 ft / 0 m 0 ft / 0 m
17 60 ft / 18 m 3,608 ft / 1,100 m 179.64° 175.84° Asphalt 0 ft / 0 m 0 ft / 0 m
21 260 ft / 79 m 1,628 ft / 496 m 217.76° 213.96° Grass 0 ft / 0 m 0 ft / 0 m
30 300 ft / 91 m 2,262 ft / 690 m 312.47° 308.67° Grass 0 ft / 0 m 0 ft / 0 m
35 60 ft / 18 m 3,608 ft / 1,100 m 359.64° 355.84° Asphalt 0 ft / 0 m 800 ft / 244 m

Map

Weather


0- 5 10 15 20 25 30 35+ Temperature / ° C

Clouds and Precipitation
Forecast for 2017-12-17 06:00 UTC. Updated 2 hours ago

Ground ~20,000 ft ~40,000 ft Winds

METAR

KCNK 170155Z AUTO 09003KT 10SM CLR 03/M04 A2987 RMK AO2 SLP126 T00331044

TAF

Not found

Frequencies

Recorded 121.22 MHz ASOS
Unicom 122.80 MHz CTAF/UNICOM
Warning: Do not use this data for real-world aviation or navigation. No guarantee of current accuracy is given.